Aeroporto :
LOGIN :

Iscrizione | Disclaimer

   EN    FR    IT 

 










Sommario :    VFR   VFR Marginale   IFR   IFR Intensivo   IFR Molto Intensivo
Visibilità : 
Base nubi : 
>= 8 km
>= 3000ft
5 / 8 km
1000 / 3000 ft
1500m / 5 km
500 / 1000 ft
800 / 1500m
200 / 500 ft
< 800m
< 200 ft
Simboli :   Temporali  Nebbia  Neve Forte  Precipitazioni Forti  Vento > 20 kt
SIGMETs :   Varie  Temporali  Ghiacco  Turbolenza  Onda orograficha  Ceneri Vulcaniche






- Altitudine del aeroporto : 157 ft
- Codice IATA : LIL


LFQQ - Lille Lesquin

ULTIMO METAR :
  • 061900Z AUTO 06006KT 9000 NSC 04/02 Q1039 NOSIG

METARs OBSOLETI :
  • 061830Z AUTO 06005KT 7000 NSC 04/03 Q1040 NOSIG
  • 061800Z AUTO 08004KT 8000 NSC 04/02 Q1040 NOSIG
  • 061730Z AUTO 07004KT 9000 NSC 05/03 Q1039 NOSIG
  • 061700Z AUTO 07005KT CAVOK 05/02 Q1039 NOSIG
  • 061630Z AUTO 04005KT CAVOK 07/02 Q1039 NOSIG

TAF TAF LFQQ
Valido dal 06 a 18 ore il 08 a 00 ore UTC


061700Z 0618/0724 05005KT CAVOK
BECMG 0621/0624 3000 BR OVC003
PROB40 0623/0708 0300 FZFG VV///
BECMG 0708/0710 8000 NSW BKN006
BECMG 0711/0713 CAVOK
BECMG 0722/0724 3000 BR
ATIS : +33 3 20 16 19 54



MetMap, La meteo Aeronautica in un colpo d'occhio ! - Copyright ORBIFLY Dicembre 2007 - Disclaimer

ORBIFLY MET'MAP TEAM :

Programmazione e sviluppo : Alexandra Zaïnal
Concezione : Baudouin d'Aumeries
Supporto tecnico e logistico : Manuel Goepfert
Aiuto : Marc-Olivier Méhu
Aiuto per la traduzione : Arnaldo La Scala




FONTI E CREDITI :

   NOAA